Hi Land, Louisiana
Current Conditions -  °F | °C
As of 1:55 AM on Tuesday 27 Jan 2015 (Local Time) from KNBG Reporting Station
Clear Clear  
Wind Chill: 44°   Ceiling: Unl
Heat Index: 47°   Visibility: 10mi
Dew Point: 38°   Wind: 7mph
Humidity: 71%   Direction: 240°WSW
Pressure: 30.1"   Gusts: NA
Location:  29.912°N, 89.8759°W
Report Text: KNBG 270755Z AUTO 24006KT 10SM CLR 08/03 A3010 RMK AO2 SLP192 T00830033 $
Loading
Personal Weather Stations






























Interactive Weather Map New forecast layout! Learn more

10-Day Weather Forecast

Advertisements
Track Severe Weather on mobile